(°C)
(°C)
-2°
-2°
-1°
-1°
-0°
ΝΔ
ΝΔ
ΝΔ
ΝΔ
ΝΔ
ΝΔ
ΝΔ
(χλμ / ω)
26-47
25-46
24-44
23-44
23-43
23-44
23-45
(χιλιοστά)
3
3
0
0
0
0
0
(%)
71
59
41
16
15
3
11

Ανύψωση ήλιου

/ -36.2°
sun-icon
UV 0
08:12
18:15
Φθίνων αμφίκυρτος (φάση σελήνης) (212°)
19:11
11:06

METAR για 55.03°Β 82.6°Α (UNNT)

Χρόνος Συνθήκες Θερμοκρασία/
Σημείο δρόσου
Άνεμος Ορατότητα Καιρός Νέφη Πίεση Αλλαγή Ανεπεξέργαστο
MVFR 5°C / 5°C 220º 17kt Gust 27kt 9000m Light Showers Rain 3.00mm precipitation Vertical Visibility of 0ft.
Overcast 2400ft
1015 No Significant change. Runway 25: Wet or puddles, 51-100% contamination with 1mm, friction coefficient 0.50. Runway 16: Wet or puddles, 51-100% contamination with 1mm, friction coefficient 0.55. UNNT 231500Z 22009G14MPS 9000 -SHRA BKN010 OVC024CB 05/05 Q1015 R25/290150 R16/290155 NOSIG RMK QFE751/1001
MVFR 5°C / 4°C 220º 17kt Gust 27kt 8000m Light Showers Rain 3.00mm precipitation Vertical Visibility of 0ft.
Overcast 2400ft
1015 No Significant change. Runway 25: Wet or puddles, 51-100% contamination with 1mm, friction coefficient 0.50. Runway 16: Wet or puddles, 51-100% contamination with 1mm, friction coefficient 0.55. UNNT 231430Z 22009G14MPS 8000 -SHRA BKN010 OVC024CB 05/04 Q1015 R25/290150 R16/290155 NOSIG RMK QFE751/1001
MVFR 5°C / 4°C 220º 17kt >10km Light Showers Rain 3.00mm precipitation Vertical Visibility of 0ft.
Overcast 2400ft
1015 No Significant change. Runway 25: Wet or puddles, 51-100% contamination with 1mm, friction coefficient 0.50. Runway 16: Wet or puddles, 51-100% contamination with 1mm, friction coefficient 0.55. UNNT 231400Z 22009MPS 9999 -SHRA BKN010 OVC024CB 05/04 Q1015 R25/290150 R16/290155 NOSIG RMK QFE751/1001
MVFR 5°C / 4°C 210º 17kt Gust 27kt >10km Light Showers Rain 3.00mm precipitation Vertical Visibility of 0ft.
Overcast 2500ft
1015 No Significant change. Runway 25: Wet or puddles, 51-100% contamination with 1mm, friction coefficient 0.50. Runway 16: Wet or puddles, 51-100% contamination with 1mm, friction coefficient 0.55. UNNT 231330Z 21009G14MPS 9999 -SHRA BKN010 OVC025CB 05/04 Q1015 R25/290150 R16/290155 NOSIG RMK QFE751/1002
MVFR 4°C / 4°C 210º 17kt 5000m Light Showers Rain 3.00mm precipitation Vertical Visibility of 0ft.
Overcast 2100ft
1015 No Significant change. Runway 25: Wet or puddles, 51-100% contamination with 1mm, friction coefficient 0.55. Runway 16: Wet or puddles, 51-100% contamination with 1mm, friction coefficient 0.55. UNNT 231300Z 21009MPS 5000 -SHRA BKN011 OVC021CB 04/04 Q1015 R25/290155 R16/290155 NOSIG RMK QFE751/1002
MVFR 4°C / 3°C 220º 19kt Gust 31kt 9000m - Broken Clouds 1200ft
Overcast 2000ft
1015 No Significant change. Runway 25: Wet or puddles, 51-100% contamination with 1mm, friction coefficient 0.55. Runway 16: Wet or puddles, 51-100% contamination with 1mm, friction coefficient 0.55. UNNT 231230Z 22010G16MPS 9000 BKN012 OVC020CB 04/03 Q1015 R25/290155 R16/290155 NOSIG RMK QFE751/1002
MVFR 4°C / 2°C 210º 16kt Gust 25kt. Wind Shear present on Runway 25. >10km - Broken Clouds 1300ft
Overcast 2000ft
1015 No Significant change. Runway 25: Wet or puddles, 51-100% contamination with 1mm, friction coefficient 0.55. Runway 16: Wet or puddles, 51-100% contamination with 1mm, friction coefficient 0.55. UNNT 231200Z 21008G13MPS 9999 BKN013 OVC020CB 04/02 Q1015 WS R25 R25/290155 R16/290155 NOSIG RMK QFE751/1002
MVFR 4°C / 2°C 200º 16kt >10km Light Showers Rain 3.00mm precipitation Vertical Visibility of 0ft. 1015 No Significant change. Runway 25: Wet or puddles, 51-100% contamination with 1mm, friction coefficient 0.55. Runway 16: Wet or puddles, 51-100% contamination with 1mm, friction coefficient 0.55. UNNT 231130Z 20008MPS 9999 -SHRA OVC013CB 04/02 Q1015 R25/290155 R16/290155 NOSIG RMK QFE751/1001
MVFR 4°C / 2°C 200º 16kt Gust 25kt >10km Light Showers Rain 3.00mm precipitation Vertical Visibility of 0ft. 1015 No Significant change. Runway 25: Wet or puddles, 51-100% contamination with 1mm, friction coefficient 0.55. Runway 16: Wet or puddles, 51-100% contamination with 1mm, friction coefficient 0.55. UNNT 231100Z 20008G13MPS 9999 -SHRA OVC015CB 04/02 Q1015 R25/290155 R16/290155 NOSIG RMK QFE751/1002
MVFR 4°C / 2°C 190º 14kt >10km - Overcast 1500ft 1015 No Significant change. Runway 25: Wet or puddles, 51-100% contamination with 1mm, friction coefficient 0.55. Runway 16: Wet or puddles, 51-100% contamination with 1mm, friction coefficient 0.55. UNNT 231030Z 19007MPS 9999 OVC015CB 04/02 Q1015 R25/290155 R16/290155 NOSIG RMK QFE752/1002
MVFR 4°C / 2°C 210º 17kt Gust 27kt 9000m Light Rain 1.00mm precipitation Vertical Visibility of 0ft. 1016 No Significant change. Runway 25: Wet or puddles, 51-100% contamination with 1mm, friction coefficient 0.55. Runway 16: Wet or puddles, 51-100% contamination with 1mm, friction coefficient 0.55. UNNT 231000Z 21009G14MPS 9000 -RA OVC014 04/02 Q1016 R25/290155 R16/290155 NOSIG RMK QFE752/1002
MVFR 4°C / 1°C 200º 17kt Gust 35kt >10km Light Rain 1.00mm precipitation Vertical Visibility of 0ft. 1015 No Significant change. Runway 25: Damp, 51-100% contamination with <1mm, friction coefficient 0.60. Runway 16: Damp, 51-100% contamination with <1mm, friction coefficient 0.60. UNNT 230930Z 20009G18MPS 9999 -RA OVC016 04/01 Q1015 R25/190060 R16/190060 NOSIG RMK QFE752/1002
MVFR 4°C / 0°C 200º 19kt Gust 29kt >10km Light Rain 1.00mm precipitation Vertical Visibility of 0ft. 1016 No Significant change. Runway 25: Damp, 51-100% contamination with <1mm, friction coefficient 0.60. Runway 16: Damp, 51-100% contamination with <1mm, friction coefficient 0.60. UNNT 230900Z 20010G15MPS 9999 -RA OVC021 04/00 Q1016 R25/190060 R16/190060 NOSIG RMK QFE752/1002
MVFR 5°C / 0°C 200º 17kt >10km Light Rain 1.00mm precipitation Vertical Visibility of 0ft. 1016 No Significant change. Runway 25: Damp, 51-100% contamination with <1mm, friction coefficient 0.60. Runway 16: Damp, 51-100% contamination with <1mm, friction coefficient 0.60. UNNT 230830Z 20009MPS 9999 -RA OVC024 05/M00 Q1016 R25/190060 R16/190060 NOSIG RMK QFE752/1003
MVFR 5°C / -1°C 200º 17kt >10km Light Rain 1.00mm precipitation Vertical Visibility of 0ft. 1016 No Significant change. Runway 25: Clear and dry, 51-100% contamination with <1mm, friction coefficient 0.70. Runway 16: Clear and dry, 51-100% contamination with <1mm, friction coefficient 0.70. UNNT 230800Z 20009MPS 9999 -RA OVC027 05/M01 Q1016 R25/090070 R16/090070 NOSIG RMK QFE752/1003
MVFR 5°C / -1°C 200º 16kt >10km - Overcast 2700ft 1017 No Significant change. Runway 25: Clear and dry, 51-100% contamination with <1mm, friction coefficient 0.70. Runway 16: Clear and dry, 51-100% contamination with <1mm, friction coefficient 0.70. UNNT 230730Z 20008MPS 9999 OVC027 05/M01 Q1017 R25/090070 R16/090070 NOSIG RMK QFE752/1003
MVFR 5°C / -1°C 200º 16kt >10km - Overcast 2400ft 1017 No Significant change. Runway 25: Clear and dry, 51-100% contamination with <1mm, friction coefficient 0.70. Runway 16: Clear and dry, 51-100% contamination with <1mm, friction coefficient 0.70. UNNT 230700Z 20008MPS 9999 OVC024 05/M01 Q1017 R25/090070 R16/090070 NOSIG RMK QFE753/1004
MVFR 5°C / -1°C 210º 17kt Gust 29kt >10km Light Rain 1.00mm precipitation Vertical Visibility of 0ft. 1018 No Significant change. Runway 25: Clear and dry, 51-100% contamination with <1mm, friction coefficient 0.70. Runway 16: Clear and dry, 51-100% contamination with <1mm, friction coefficient 0.70. UNNT 230630Z 21009G15MPS 9999 -RA OVC026 05/M01 Q1018 R25/090070 R16/090070 NOSIG RMK QFE753/1004
MVFR 5°C / -1°C 210º 17kt Gust 27kt >10km - Overcast 2700ft 1018 No Significant change. Runway 25: Clear and dry, 51-100% contamination with <1mm, friction coefficient 0.70. Runway 16: Clear and dry, 51-100% contamination with <1mm, friction coefficient 0.70. UNNT 230600Z 21009G14MPS 9999 OVC027 05/M01 Q1018 R25/090070 R16/090070 NOSIG RMK QFE753/1005
MVFR 5°C / -2°C 210º 17kt >10km - Overcast 2700ft 1018 No Significant change. Runway 25: Clear and dry, 51-100% contamination with <1mm, friction coefficient 0.70. Runway 16: Clear and dry, 51-100% contamination with <1mm, friction coefficient 0.70. UNNT 230530Z 21009MPS 9999 OVC027 05/M02 Q1018 R25/090070 R16/090070 NOSIG RMK QFE754/1005
MVFR 5°C / -1°C 200º 17kt Gust 29kt >10km - Overcast 2500ft 1018 No Significant change. Runway 25: Clear and dry, 51-100% contamination with <1mm, friction coefficient 0.70. Runway 16: Clear and dry, 51-100% contamination with <1mm, friction coefficient 0.70. UNNT 230500Z 20009G15MPS 9999 OVC025 05/M01 Q1018 R25/090070 R16/090070 NOSIG RMK QFE754/1005
MVFR 4°C / -1°C 200º 16kt >10km - Overcast 2500ft 1019 No Significant change. Runway 25: Clear and dry, 51-100% contamination with <1mm, friction coefficient 0.70. Runway 16: Clear and dry, 51-100% contamination with <1mm, friction coefficient 0.70. UNNT 230430Z 20008MPS 9999 OVC025 04/M01 Q1019 R25/090070 R16/090070 NOSIG RMK QFE754/1005
MVFR 4°C / -2°C 200º 17kt >10km - Overcast 2600ft 1019 No Significant change. Runway 25: Clear and dry, 51-100% contamination with <1mm, friction coefficient 0.70. Runway 16: Clear and dry, 51-100% contamination with <1mm, friction coefficient 0.70. UNNT 230400Z 20009MPS 9999 OVC026 04/M02 Q1019 R25/090070 R16/090070 NOSIG RMK QFE754/1006
MVFR 4°C / -2°C 200º 16kt Gust 25kt >10km - Overcast 2800ft 1019 No Significant change. Runway 25: Clear and dry, 51-100% contamination with <1mm, friction coefficient 0.70. Runway 16: Clear and dry, 51-100% contamination with <1mm, friction coefficient 0.70. UNNT 230330Z 20008G13MPS 9999 OVC028 04/M02 Q1019 R25/090070 R16/090070 NOSIG RMK QFE754/1006

MVFR

5°C / 5°C

[Περισσότερο]
Άνεμος 220º 17kt Gust 27kt
Ορατότητα 9000m
Καιρός Light Showers Rain 3.00mm precipitation
Νέφη Vertical Visibility of 0ft.
Overcast 2400ft
Πίεση 1015
Αλλαγή No Significant change. Runway 25: Wet or puddles, 51-100% contamination with 1mm, friction coefficient 0.50. Runway 16: Wet or puddles, 51-100% contamination with 1mm, friction coefficient 0.55.
Ανεπεξέργαστο UNNT 231500Z 22009G14MPS 9000 -SHRA BKN010 OVC024CB 05/05 Q1015 R25/290150 R16/290155 NOSIG RMK QFE751/1001

MVFR

5°C / 4°C

[Περισσότερο]
Άνεμος 220º 17kt Gust 27kt
Ορατότητα 8000m
Καιρός Light Showers Rain 3.00mm precipitation
Νέφη Vertical Visibility of 0ft.
Overcast 2400ft
Πίεση 1015
Αλλαγή No Significant change. Runway 25: Wet or puddles, 51-100% contamination with 1mm, friction coefficient 0.50. Runway 16: Wet or puddles, 51-100% contamination with 1mm, friction coefficient 0.55.
Ανεπεξέργαστο UNNT 231430Z 22009G14MPS 8000 -SHRA BKN010 OVC024CB 05/04 Q1015 R25/290150 R16/290155 NOSIG RMK QFE751/1001

MVFR

5°C / 4°C

[Περισσότερο]
Άνεμος 220º 17kt
Ορατότητα >10km
Καιρός Light Showers Rain 3.00mm precipitation
Νέφη Vertical Visibility of 0ft.
Overcast 2400ft
Πίεση 1015
Αλλαγή No Significant change. Runway 25: Wet or puddles, 51-100% contamination with 1mm, friction coefficient 0.50. Runway 16: Wet or puddles, 51-100% contamination with 1mm, friction coefficient 0.55.
Ανεπεξέργαστο UNNT 231400Z 22009MPS 9999 -SHRA BKN010 OVC024CB 05/04 Q1015 R25/290150 R16/290155 NOSIG RMK QFE751/1001

MVFR

5°C / 4°C

[Περισσότερο]
Άνεμος 210º 17kt Gust 27kt
Ορατότητα >10km
Καιρός Light Showers Rain 3.00mm precipitation
Νέφη Vertical Visibility of 0ft.
Overcast 2500ft
Πίεση 1015
Αλλαγή No Significant change. Runway 25: Wet or puddles, 51-100% contamination with 1mm, friction coefficient 0.50. Runway 16: Wet or puddles, 51-100% contamination with 1mm, friction coefficient 0.55.
Ανεπεξέργαστο UNNT 231330Z 21009G14MPS 9999 -SHRA BKN010 OVC025CB 05/04 Q1015 R25/290150 R16/290155 NOSIG RMK QFE751/1002

MVFR

4°C / 4°C

[Περισσότερο]
Άνεμος 210º 17kt
Ορατότητα 5000m
Καιρός Light Showers Rain 3.00mm precipitation
Νέφη Vertical Visibility of 0ft.
Overcast 2100ft
Πίεση 1015
Αλλαγή No Significant change. Runway 25: Wet or puddles, 51-100% contamination with 1mm, friction coefficient 0.55. Runway 16: Wet or puddles, 51-100% contamination with 1mm, friction coefficient 0.55.
Ανεπεξέργαστο UNNT 231300Z 21009MPS 5000 -SHRA BKN011 OVC021CB 04/04 Q1015 R25/290155 R16/290155 NOSIG RMK QFE751/1002

MVFR

4°C / 3°C

[Περισσότερο]
Άνεμος 220º 19kt Gust 31kt
Ορατότητα 9000m
Καιρός -
Νέφη Broken Clouds 1200ft
Overcast 2000ft
Πίεση 1015
Αλλαγή No Significant change. Runway 25: Wet or puddles, 51-100% contamination with 1mm, friction coefficient 0.55. Runway 16: Wet or puddles, 51-100% contamination with 1mm, friction coefficient 0.55.
Ανεπεξέργαστο UNNT 231230Z 22010G16MPS 9000 BKN012 OVC020CB 04/03 Q1015 R25/290155 R16/290155 NOSIG RMK QFE751/1002

MVFR

4°C / 2°C

[Περισσότερο]
Άνεμος 210º 16kt Gust 25kt. Wind Shear present on Runway 25.
Ορατότητα >10km
Καιρός -
Νέφη Broken Clouds 1300ft
Overcast 2000ft
Πίεση 1015
Αλλαγή No Significant change. Runway 25: Wet or puddles, 51-100% contamination with 1mm, friction coefficient 0.55. Runway 16: Wet or puddles, 51-100% contamination with 1mm, friction coefficient 0.55.
Ανεπεξέργαστο UNNT 231200Z 21008G13MPS 9999 BKN013 OVC020CB 04/02 Q1015 WS R25 R25/290155 R16/290155 NOSIG RMK QFE751/1002

MVFR

4°C / 2°C

[Περισσότερο]
Άνεμος 200º 16kt
Ορατότητα >10km
Καιρός Light Showers Rain 3.00mm precipitation
Νέφη Vertical Visibility of 0ft.
Πίεση 1015
Αλλαγή No Significant change. Runway 25: Wet or puddles, 51-100% contamination with 1mm, friction coefficient 0.55. Runway 16: Wet or puddles, 51-100% contamination with 1mm, friction coefficient 0.55.
Ανεπεξέργαστο UNNT 231130Z 20008MPS 9999 -SHRA OVC013CB 04/02 Q1015 R25/290155 R16/290155 NOSIG RMK QFE751/1001

MVFR

4°C / 2°C

[Περισσότερο]
Άνεμος 200º 16kt Gust 25kt
Ορατότητα >10km
Καιρός Light Showers Rain 3.00mm precipitation
Νέφη Vertical Visibility of 0ft.
Πίεση 1015
Αλλαγή No Significant change. Runway 25: Wet or puddles, 51-100% contamination with 1mm, friction coefficient 0.55. Runway 16: Wet or puddles, 51-100% contamination with 1mm, friction coefficient 0.55.
Ανεπεξέργαστο UNNT 231100Z 20008G13MPS 9999 -SHRA OVC015CB 04/02 Q1015 R25/290155 R16/290155 NOSIG RMK QFE751/1002

MVFR

4°C / 2°C

[Περισσότερο]
Άνεμος 190º 14kt
Ορατότητα >10km
Καιρός -
Νέφη Overcast 1500ft
Πίεση 1015
Αλλαγή No Significant change. Runway 25: Wet or puddles, 51-100% contamination with 1mm, friction coefficient 0.55. Runway 16: Wet or puddles, 51-100% contamination with 1mm, friction coefficient 0.55.
Ανεπεξέργαστο UNNT 231030Z 19007MPS 9999 OVC015CB 04/02 Q1015 R25/290155 R16/290155 NOSIG RMK QFE752/1002

MVFR

4°C / 2°C

[Περισσότερο]
Άνεμος 210º 17kt Gust 27kt
Ορατότητα 9000m
Καιρός Light Rain 1.00mm precipitation
Νέφη Vertical Visibility of 0ft.
Πίεση 1016
Αλλαγή No Significant change. Runway 25: Wet or puddles, 51-100% contamination with 1mm, friction coefficient 0.55. Runway 16: Wet or puddles, 51-100% contamination with 1mm, friction coefficient 0.55.
Ανεπεξέργαστο UNNT 231000Z 21009G14MPS 9000 -RA OVC014 04/02 Q1016 R25/290155 R16/290155 NOSIG RMK QFE752/1002

MVFR

4°C / 1°C

[Περισσότερο]
Άνεμος 200º 17kt Gust 35kt
Ορατότητα >10km
Καιρός Light Rain 1.00mm precipitation
Νέφη Vertical Visibility of 0ft.
Πίεση 1015
Αλλαγή No Significant change. Runway 25: Damp, 51-100% contamination with <1mm, friction coefficient 0.60. Runway 16: Damp, 51-100% contamination with <1mm, friction coefficient 0.60.
Ανεπεξέργαστο UNNT 230930Z 20009G18MPS 9999 -RA OVC016 04/01 Q1015 R25/190060 R16/190060 NOSIG RMK QFE752/1002

MVFR

4°C / 0°C

[Περισσότερο]
Άνεμος 200º 19kt Gust 29kt
Ορατότητα >10km
Καιρός Light Rain 1.00mm precipitation
Νέφη Vertical Visibility of 0ft.
Πίεση 1016
Αλλαγή No Significant change. Runway 25: Damp, 51-100% contamination with <1mm, friction coefficient 0.60. Runway 16: Damp, 51-100% contamination with <1mm, friction coefficient 0.60.
Ανεπεξέργαστο UNNT 230900Z 20010G15MPS 9999 -RA OVC021 04/00 Q1016 R25/190060 R16/190060 NOSIG RMK QFE752/1002

MVFR

5°C / 0°C

[Περισσότερο]
Άνεμος 200º 17kt
Ορατότητα >10km
Καιρός Light Rain 1.00mm precipitation
Νέφη Vertical Visibility of 0ft.
Πίεση 1016
Αλλαγή No Significant change. Runway 25: Damp, 51-100% contamination with <1mm, friction coefficient 0.60. Runway 16: Damp, 51-100% contamination with <1mm, friction coefficient 0.60.
Ανεπεξέργαστο UNNT 230830Z 20009MPS 9999 -RA OVC024 05/M00 Q1016 R25/190060 R16/190060 NOSIG RMK QFE752/1003

MVFR

5°C / -1°C

[Περισσότερο]
Άνεμος 200º 17kt
Ορατότητα >10km
Καιρός Light Rain 1.00mm precipitation
Νέφη Vertical Visibility of 0ft.
Πίεση 1016
Αλλαγή No Significant change. Runway 25: Clear and dry, 51-100% contamination with <1mm, friction coefficient 0.70. Runway 16: Clear and dry, 51-100% contamination with <1mm, friction coefficient 0.70.
Ανεπεξέργαστο UNNT 230800Z 20009MPS 9999 -RA OVC027 05/M01 Q1016 R25/090070 R16/090070 NOSIG RMK QFE752/1003

MVFR

5°C / -1°C

[Περισσότερο]
Άνεμος 200º 16kt
Ορατότητα >10km
Καιρός -
Νέφη Overcast 2700ft
Πίεση 1017
Αλλαγή No Significant change. Runway 25: Clear and dry, 51-100% contamination with <1mm, friction coefficient 0.70. Runway 16: Clear and dry, 51-100% contamination with <1mm, friction coefficient 0.70.
Ανεπεξέργαστο UNNT 230730Z 20008MPS 9999 OVC027 05/M01 Q1017 R25/090070 R16/090070 NOSIG RMK QFE752/1003

MVFR

5°C / -1°C

[Περισσότερο]
Άνεμος 200º 16kt
Ορατότητα >10km
Καιρός -
Νέφη Overcast 2400ft
Πίεση 1017
Αλλαγή No Significant change. Runway 25: Clear and dry, 51-100% contamination with <1mm, friction coefficient 0.70. Runway 16: Clear and dry, 51-100% contamination with <1mm, friction coefficient 0.70.
Ανεπεξέργαστο UNNT 230700Z 20008MPS 9999 OVC024 05/M01 Q1017 R25/090070 R16/090070 NOSIG RMK QFE753/1004

MVFR

5°C / -1°C

[Περισσότερο]
Άνεμος 210º 17kt Gust 29kt
Ορατότητα >10km
Καιρός Light Rain 1.00mm precipitation
Νέφη Vertical Visibility of 0ft.
Πίεση 1018
Αλλαγή No Significant change. Runway 25: Clear and dry, 51-100% contamination with <1mm, friction coefficient 0.70. Runway 16: Clear and dry, 51-100% contamination with <1mm, friction coefficient 0.70.
Ανεπεξέργαστο UNNT 230630Z 21009G15MPS 9999 -RA OVC026 05/M01 Q1018 R25/090070 R16/090070 NOSIG RMK QFE753/1004

MVFR

5°C / -1°C

[Περισσότερο]
Άνεμος 210º 17kt Gust 27kt
Ορατότητα >10km
Καιρός -
Νέφη Overcast 2700ft
Πίεση 1018
Αλλαγή No Significant change. Runway 25: Clear and dry, 51-100% contamination with <1mm, friction coefficient 0.70. Runway 16: Clear and dry, 51-100% contamination with <1mm, friction coefficient 0.70.
Ανεπεξέργαστο UNNT 230600Z 21009G14MPS 9999 OVC027 05/M01 Q1018 R25/090070 R16/090070 NOSIG RMK QFE753/1005

MVFR

5°C / -2°C

[Περισσότερο]
Άνεμος 210º 17kt
Ορατότητα >10km
Καιρός -
Νέφη Overcast 2700ft
Πίεση 1018
Αλλαγή No Significant change. Runway 25: Clear and dry, 51-100% contamination with <1mm, friction coefficient 0.70. Runway 16: Clear and dry, 51-100% contamination with <1mm, friction coefficient 0.70.
Ανεπεξέργαστο UNNT 230530Z 21009MPS 9999 OVC027 05/M02 Q1018 R25/090070 R16/090070 NOSIG RMK QFE754/1005

MVFR

5°C / -1°C

[Περισσότερο]
Άνεμος 200º 17kt Gust 29kt
Ορατότητα >10km
Καιρός -
Νέφη Overcast 2500ft
Πίεση 1018
Αλλαγή No Significant change. Runway 25: Clear and dry, 51-100% contamination with <1mm, friction coefficient 0.70. Runway 16: Clear and dry, 51-100% contamination with <1mm, friction coefficient 0.70.
Ανεπεξέργαστο UNNT 230500Z 20009G15MPS 9999 OVC025 05/M01 Q1018 R25/090070 R16/090070 NOSIG RMK QFE754/1005

MVFR

4°C / -1°C

[Περισσότερο]
Άνεμος 200º 16kt
Ορατότητα >10km
Καιρός -
Νέφη Overcast 2500ft
Πίεση 1019
Αλλαγή No Significant change. Runway 25: Clear and dry, 51-100% contamination with <1mm, friction coefficient 0.70. Runway 16: Clear and dry, 51-100% contamination with <1mm, friction coefficient 0.70.
Ανεπεξέργαστο UNNT 230430Z 20008MPS 9999 OVC025 04/M01 Q1019 R25/090070 R16/090070 NOSIG RMK QFE754/1005

MVFR

4°C / -2°C

[Περισσότερο]
Άνεμος 200º 17kt
Ορατότητα >10km
Καιρός -
Νέφη Overcast 2600ft
Πίεση 1019
Αλλαγή No Significant change. Runway 25: Clear and dry, 51-100% contamination with <1mm, friction coefficient 0.70. Runway 16: Clear and dry, 51-100% contamination with <1mm, friction coefficient 0.70.
Ανεπεξέργαστο UNNT 230400Z 20009MPS 9999 OVC026 04/M02 Q1019 R25/090070 R16/090070 NOSIG RMK QFE754/1006

MVFR

4°C / -2°C

[Περισσότερο]
Άνεμος 200º 16kt Gust 25kt
Ορατότητα >10km
Καιρός -
Νέφη Overcast 2800ft
Πίεση 1019
Αλλαγή No Significant change. Runway 25: Clear and dry, 51-100% contamination with <1mm, friction coefficient 0.70. Runway 16: Clear and dry, 51-100% contamination with <1mm, friction coefficient 0.70.
Ανεπεξέργαστο UNNT 230330Z 20008G13MPS 9999 OVC028 04/M02 Q1019 R25/090070 R16/090070 NOSIG RMK QFE754/1006

TAF για 55.03°Β 82.6°Α (UNNT)

From till


From till Wind 210º 23kt. Gust 43kt. Visibility 8000m. Light Showers Rain . Broken Clouds 1000ft.
Becoming from till Wind 210º 16kt. Gust 29kt. Visibility 8000m. Light Showers Rain . Broken Clouds 3900ft.
Becoming from till Wind 240º 12kt. Gust 23kt. Visibility 8000m. Light Showers Rain . Broken Clouds 3900ft.
Temporarly from till Broken Clouds 1600ft.
Becoming from till Wind 200º 10kt. Gust 23kt. Visibility 8000m. Light Showers Rain . Broken Clouds 3900ft.

Ανεπεξέργαστο: TAF UNNT 231400Z 2315/2415 21012G22MPS 8000 -SHRA BKN010CB BECMG 2318/2321 21008G15MPS BKN039CB BECMG 2403/2406 24006G12MPS TEMPO 2406/2412 BKN016CB BECMG 2412/2413 20005G12MPS

Τρέχουσες εικόνες δορυφόρου και βροχής για 55.03°Β 82.6°Α

Η ένδειξη τοποθεσίας τοποθετείται στο 55.03°Β 82.6°Α. [Περισσότερο]

Οι δορυφορικές εικόνες σε πραγματικό χρόνο συνδυάζουν ορατό φως κατά τη διάρκεια της ημέρας με υπέρυθρη ακτινοβολία κατά τη διάρκεια της νύχτας. Κατά τη διάρκεια της νύχτας, η εικόνα δεν είναι σκοτεινή μιας και η υπέρυθρη ακτινοβολία μπορεί να εντοπίσει τις διαφορές στη θερμοκρασία. Δυστυχώς, είναι δύσκολο να ξεχωρίσουν οι χαμηλές νεφώσεις και η ομίχλη από τις θερμοκρασίες εδάφους και έτσι μπορεί να είναι σχετικά αόρατα κατά τη διάρκεια της νύχτας. Οι εικόνες από τον δορυφόρο Meteosat για την Ευρώπη ενημερώνονται σε πραγματικό χρόνο κάθε 5 λεπτά. Οι εικόνες από τους δορυφόρους GOES-16/GOES-17 (Βόρεια & Λατινική Αμερική) και Himawari (Ασία) ενημερώνονται κάθε 10 λεπτά.

Πνευματική ιδιοκτησία 2021 EUMETSAT / meteoblue. / Πνευματική ιδιοκτησία 2021 meteoblue

Ραντάρ και πρόγνωση υετού μικρής δειάρκειας για 55.03°Β 82.6°Α

Ψιλοβρέχει
Φως
Μέτρια
Βαριά
Πολύ βαρύ
Χαλάζι

Ο δείκτης θέσης τοποθετείται στο 55.03°Β 82.6°Α. Αυτή η κινούμενη εικόνα δείχνει την ραντάρ βροχόπτωσης για την τελευταία ώρα, καθώς και 1πρόγνωση h. Το ψιλόβροχο ή το ελαφρύ χιόνι μπορεί να είναι αόρατο για το ραντάρ. Η ένταση της βροχόπτωσης είναι χρωματικά κωδικοποιημένη και κυμαίνεται από γαλάζιο έως πορτοκαλί.